createdAt,value
2023-04-28T00:04:13.070Z,1550
2023-04-28T00:09:32.683Z,1549
2023-04-28T00:14:51.121Z,1549
2023-04-28T00:20:09.338Z,1567
2023-04-28T00:25:27.861Z,1564
2023-04-28T00:30:46.346Z,1565
2023-04-28T00:36:04.866Z,1565
2023-04-28T00:41:22.886Z,1547
2023-04-28T00:46:41.074Z,1533
2023-04-28T00:51:43.604Z,1527
2023-04-28T00:57:02.152Z,1532
2023-04-28T01:02:20.813Z,1530
2023-04-28T01:07:39.338Z,1521
2023-04-28T01:12:57.645Z,1525
2023-04-28T01:18:15.868Z,1533
2023-04-28T01:23:34.190Z,1542
2023-04-28T01:28:52.330Z,1543
2023-04-28T01:33:54.994Z,1546
2023-04-28T01:39:13.294Z,1526
2023-04-28T01:44:31.636Z,1539
2023-04-28T01:49:50.137Z,1543
2023-04-28T01:55:08.323Z,1546
2023-04-28T02:00:26.463Z,1550
2023-04-28T02:05:44.890Z,1551
2023-04-28T02:11:03.181Z,1550
2023-04-28T02:16:21.805Z,1546
2023-04-28T02:21:40.625Z,1550
2023-04-28T02:26:58.729Z,1542
2023-04-28T02:32:16.703Z,1541
2023-04-28T02:37:34.921Z,1546
2023-04-28T02:42:53.180Z,1557
2023-04-28T02:48:11.354Z,1557
2023-04-28T02:53:30.027Z,1551
2023-04-28T02:58:48.567Z,1544
2023-04-28T03:04:07.029Z,1553
2023-04-28T03:09:26.045Z,1551
2023-04-28T03:14:44.211Z,1544
2023-04-28T03:20:02.372Z,1549
2023-04-28T03:25:20.587Z,1571
2023-04-28T03:30:38.715Z,1556
2023-04-28T03:35:57.415Z,1559
2023-04-28T03:41:15.444Z,1549
2023-04-28T03:46:33.805Z,1532
2023-04-28T03:51:52.344Z,1506
2023-04-28T03:57:13.353Z,1487
2023-04-28T04:02:31.634Z,1471
2023-04-28T04:07:50.350Z,1457
2023-04-28T04:13:08.371Z,1455
2023-04-28T04:18:26.739Z,1447
2023-04-28T04:23:45.140Z,1442
2023-04-28T04:29:03.172Z,1439
2023-04-28T04:34:21.733Z,1422
2023-04-28T04:39:39.888Z,1411
2023-04-28T04:44:58.260Z,1398
2023-04-28T04:50:16.601Z,1389
2023-04-28T04:55:34.741Z,1395
2023-04-28T05:00:53.337Z,1378
2023-04-28T05:06:11.871Z,1371
2023-04-28T05:11:30.355Z,1007
2023-04-28T05:16:48.751Z,956
2023-04-28T05:22:07.212Z,1015
2023-04-28T05:27:25.844Z,1038
2023-04-28T05:32:44.327Z,1047
2023-04-28T05:38:02.552Z,1049
2023-04-28T05:43:20.952Z,1048
2023-04-28T05:48:39.307Z,1047
2023-04-28T05:53:57.855Z,1044
2023-04-28T05:59:16.613Z,1041
2023-04-28T06:04:35.885Z,1028
2023-04-28T06:09:54.992Z,1029
2023-04-28T06:15:13.380Z,1022
2023-04-28T06:20:31.688Z,1017
2023-04-28T06:25:49.830Z,1019
2023-04-28T06:31:08.371Z,1044
2023-04-28T06:36:26.579Z,1063
2023-04-28T06:41:44.920Z,1068
2023-04-28T06:47:03.275Z,1065
2023-04-28T06:52:24.871Z,1058
2023-04-28T06:57:57.512Z,1051
2023-04-28T07:03:16.163Z,1053
2023-04-28T07:08:34.841Z,1047
2023-04-28T07:13:53.397Z,1050
2023-04-28T07:19:11.526Z,1047
2023-04-28T07:24:29.811Z,1044
2023-04-28T07:29:48.255Z,1044
2023-04-28T07:35:06.674Z,1044
2023-04-28T07:40:26.304Z,1039
2023-04-28T07:45:44.904Z,1040
2023-04-28T07:51:03.831Z,1025
2023-04-28T07:56:22.110Z,1004
2023-04-28T08:01:40.558Z,1010
2023-04-28T08:06:58.710Z,1012
2023-04-28T08:12:17.203Z,1013
2023-04-28T08:17:35.887Z,1017
2023-04-28T08:22:54.057Z,1018
2023-04-28T08:28:12.896Z,1016
2023-04-28T08:33:31.244Z,1018
2023-04-28T08:38:49.582Z,1016
2023-04-28T08:44:07.843Z,1012
2023-04-28T08:49:25.986Z,1005
2023-04-28T08:54:44.509Z,1013
2023-04-28T09:00:02.817Z,1016
2023-04-28T09:05:24.293Z,1028
2023-04-28T09:10:42.991Z,1029
2023-04-28T09:16:01.281Z,1034
2023-04-28T09:21:19.516Z,1041
2023-04-28T09:26:37.834Z,1042
2023-04-28T09:31:56.375Z,1048
2023-04-28T09:37:15.560Z,1046
2023-04-28T09:42:33.541Z,1036
2023-04-28T09:47:51.753Z,1031
2023-04-28T09:53:09.888Z,1020
2023-04-28T09:58:28.600Z,1012
2023-04-28T10:03:48.125Z,1007
2023-04-28T10:09:06.835Z,1003
2023-04-28T10:14:26.292Z,1003
2023-04-28T10:19:44.670Z,996
2023-04-28T10:25:04.113Z,984
2023-04-28T10:30:13.090Z,973
2023-04-28T10:35:46.871Z,971
2023-04-28T10:41:06.809Z,975
2023-04-28T10:46:25.168Z,966
2023-04-28T10:51:43.805Z,961
2023-04-28T10:57:06.015Z,963
2023-04-28T11:02:25.658Z,965
2023-04-28T11:07:44.229Z,977
2023-04-28T11:13:06.222Z,976
2023-04-28T11:18:24.401Z,971
2023-04-28T11:23:42.864Z,966
2023-04-28T11:29:01.053Z,959
2023-04-28T11:34:19.377Z,967
2023-04-28T11:39:37.984Z,966
2023-04-28T11:44:56.616Z,962
2023-04-28T11:50:15.189Z,956
2023-04-28T11:55:33.636Z,931
2023-04-28T12:00:51.763Z,896
2023-04-28T12:06:10.157Z,876
2023-04-28T12:11:28.356Z,869
2023-04-28T12:16:46.806Z,868
2023-04-28T12:22:05.187Z,876
2023-04-28T12:27:23.789Z,885
2023-04-28T12:32:41.988Z,894
2023-04-28T12:38:00.213Z,903
2023-04-28T12:43:18.498Z,912
2023-04-28T12:48:37.038Z,916
2023-04-28T12:53:55.351Z,1004
2023-04-28T12:59:13.766Z,975
2023-04-28T13:04:32.252Z,966
2023-04-28T13:09:51.251Z,957
2023-04-28T13:15:09.443Z,955
2023-04-28T13:20:27.844Z,953
2023-04-28T13:25:46.388Z,953
2023-04-28T13:31:04.560Z,954
2023-04-28T13:36:22.848Z,967
2023-04-28T13:41:41.140Z,1006
2023-04-28T13:46:59.789Z,1033
2023-04-28T13:52:02.707Z,1042
2023-04-28T13:57:05.528Z,1043
2023-04-28T14:02:24.373Z,1070
2023-04-28T14:07:43.411Z,1086
2023-04-28T14:13:01.631Z,1086
2023-04-28T14:18:20.027Z,1084
2023-04-28T14:23:38.185Z,1079
2023-04-28T14:28:40.890Z,1085
2023-04-28T14:33:59.175Z,1083
2023-04-28T14:39:18.402Z,1079
2023-04-28T14:44:36.951Z,1084
2023-04-28T14:49:58.452Z,1086
2023-04-28T14:55:16.453Z,1087
2023-04-28T15:00:34.969Z,1079
2023-04-28T15:05:53.104Z,1073
2023-04-28T15:11:12.019Z,1091
2023-04-28T15:16:30.492Z,1100
2023-04-28T15:21:49.309Z,1095
2023-04-28T15:27:07.910Z,1087
2023-04-28T15:32:27.319Z,1085
2023-04-28T15:37:48.865Z,1081
2023-04-28T15:43:07.430Z,1078
2023-04-28T15:48:25.559Z,1087
2023-04-28T15:53:43.800Z,1082
2023-04-28T15:59:01.960Z,1074
2023-04-28T16:04:20.006Z,1073
2023-04-28T16:09:38.816Z,1071
2023-04-28T16:14:57.238Z,1084
2023-04-28T16:20:15.550Z,1097
2023-04-28T16:25:34.043Z,1098
2023-04-28T16:30:52.176Z,1110
2023-04-28T16:36:10.517Z,1112
2023-04-28T16:41:29.086Z,1108
2023-04-28T16:46:47.341Z,1114
2023-04-28T16:52:05.472Z,1133
2023-04-28T16:57:23.845Z,1133
2023-04-28T17:02:42.567Z,1139
2023-04-28T17:07:45.587Z,1128
2023-04-28T17:12:48.418Z,1150
2023-04-28T17:18:06.687Z,1183
2023-04-28T17:23:25.183Z,1205
2023-04-28T17:28:43.426Z,1224
2023-04-28T17:34:01.610Z,1227
2023-04-28T17:39:20.032Z,1235
2023-04-28T17:44:38.193Z,1242
2023-04-28T17:49:56.306Z,1252
2023-04-28T17:55:14.692Z,1262
2023-04-28T18:00:32.951Z,1286
2023-04-28T18:05:51.080Z,1296
2023-04-28T18:11:09.716Z,1318
2023-04-28T18:16:27.966Z,1327
2023-04-28T18:21:46.053Z,1336
2023-04-28T18:27:04.418Z,1340
2023-04-28T18:32:22.597Z,1339
2023-04-28T18:37:40.995Z,1321
2023-04-28T18:42:59.729Z,1316
2023-04-28T18:48:18.174Z,1302
2023-04-28T18:53:36.979Z,1261
2023-04-28T18:58:55.835Z,1235
2023-04-28T19:04:18.240Z,1228
2023-04-28T19:09:37.608Z,1224
2023-04-28T19:14:57.860Z,1223
2023-04-28T19:20:20.450Z,1233
2023-04-28T19:25:39.160Z,1244
2023-04-28T19:30:57.742Z,1261
2023-04-28T19:36:17.010Z,1274
2023-04-28T19:41:35.355Z,1289
2023-04-28T19:46:53.685Z,1312
2023-04-28T19:52:12.169Z,1315
2023-04-28T19:57:34.250Z,1323
2023-04-28T20:02:52.808Z,1326
2023-04-28T20:08:12.074Z,1337
2023-04-28T20:13:30.940Z,1346
2023-04-28T20:18:49.522Z,1358
2023-04-28T20:23:52.294Z,1371
2023-04-28T20:28:57.228Z,1378
2023-04-28T20:33:59.971Z,1388
2023-04-28T20:39:18.492Z,1399
2023-04-28T20:44:36.867Z,1398
2023-04-28T20:49:54.992Z,1404
2023-04-28T20:55:13.368Z,1424
2023-04-28T21:00:31.823Z,1428
2023-04-28T21:05:50.479Z,1446
2023-04-28T21:11:08.699Z,1465
2023-04-28T21:16:27.012Z,1497
2023-04-28T21:21:45.656Z,1506
2023-04-28T21:27:03.657Z,1506
2023-04-28T21:32:21.883Z,1533
2023-04-28T21:37:40.823Z,1555
2023-04-28T21:43:04.655Z,1560
2023-04-28T21:48:22.836Z,1582
2023-04-28T21:53:41.174Z,1589
2023-04-28T21:58:59.176Z,1585
2023-04-28T22:04:17.290Z,1598
2023-04-28T22:09:36.290Z,1607
2023-04-28T22:14:54.840Z,1613
2023-04-28T22:20:13.243Z,1608
2023-04-28T22:25:31.623Z,1617
2023-04-28T22:30:50.217Z,1610
2023-04-28T22:36:08.645Z,1614
2023-04-28T22:41:26.812Z,1614
2023-04-28T22:46:45.239Z,1613
2023-04-28T22:52:03.501Z,1616
2023-04-28T22:57:22.081Z,1618
2023-04-28T23:02:40.867Z,1613
2023-04-28T23:07:59.398Z,1620
2023-04-28T23:13:17.796Z,1617
2023-04-28T23:18:36.179Z,1613
2023-04-28T23:23:54.580Z,1608
2023-04-28T23:29:12.932Z,1612
2023-04-28T23:34:31.283Z,1614
2023-04-28T23:39:50.026Z,1615
2023-04-28T23:45:09.184Z,1629
2023-04-28T23:50:27.465Z,1626
2023-04-28T23:55:45.616Z,1634
